sensor_id;sensor_type;location;lat;lon;timestamp;temperature;humidity
21393;DHT22;10857;52.228;21.026;2022-09-09T00:02:01;14.60;99.90
21393;DHT22;10857;52.228;21.026;2022-09-09T00:04:38;14.50;99.90
21393;DHT22;10857;52.228;21.026;2022-09-09T00:07:18;14.50;99.90
21393;DHT22;10857;52.228;21.026;2022-09-09T00:20:49;14.30;99.90
21393;DHT22;10857;52.228;21.026;2022-09-09T00:23:29;14.30;99.90
21393;DHT22;10857;52.228;21.026;2022-09-09T00:26:13;14.30;99.90
21393;DHT22;10857;52.228;21.026;2022-09-09T00:28:55;14.40;99.90
21393;DHT22;10857;52.228;21.026;2022-09-09T00:31:29;14.30;99.90
21393;DHT22;10857;52.228;21.026;2022-09-09T00:34:11;14.30;99.90
21393;DHT22;10857;52.228;21.026;2022-09-09T00:36:44;14.20;99.90
21393;DHT22;10857;52.228;21.026;2022-09-09T00:39:48;14.30;99.90
21393;DHT22;10857;52.228;21.026;2022-09-09T00:42:42;14.40;99.90
21393;DHT22;10857;52.228;21.026;2022-09-09T00:48:11;14.30;99.90
21393;DHT22;10857;52.228;21.026;2022-09-09T00:50:56;14.20;99.90
21393;DHT22;10857;52.228;21.026;2022-09-09T00:56:20;14.10;99.90
21393;DHT22;10857;52.228;21.026;2022-09-09T01:01:46;14.00;99.90
21393;DHT22;10857;52.228;21.026;2022-09-09T01:04:24;14.00;99.90
21393;DHT22;10857;52.228;21.026;2022-09-09T01:07:01;14.00;99.90
21393;DHT22;10857;52.228;21.026;2022-09-09T01:09:54;14.00;99.90
21393;DHT22;10857;52.228;21.026;2022-09-09T01:15:13;14.10;99.90
21393;DHT22;10857;52.228;21.026;2022-09-09T01:17:58;14.10;99.90
21393;DHT22;10857;52.228;21.026;2022-09-09T01:24:02;14.00;99.90
21393;DHT22;10857;52.228;21.026;2022-09-09T01:26:41;14.00;99.90
21393;DHT22;10857;52.228;21.026;2022-09-09T01:29:17;13.90;99.90
21393;DHT22;10857;52.228;21.026;2022-09-09T01:31:55;13.90;99.90
21393;DHT22;10857;52.228;21.026;2022-09-09T01:34:25;14.00;99.90
21393;DHT22;10857;52.228;21.026;2022-09-09T01:37:05;13.90;99.90
21393;DHT22;10857;52.228;21.026;2022-09-09T01:39:33;14.00;99.90
21393;DHT22;10857;52.228;21.026;2022-09-09T01:42:05;13.90;99.90
21393;DHT22;10857;52.228;21.026;2022-09-09T01:44:35;14.00;99.90
21393;DHT22;10857;52.228;21.026;2022-09-09T01:47:04;14.00;99.90
21393;DHT22;10857;52.228;21.026;2022-09-09T01:49:32;14.00;99.90
21393;DHT22;10857;52.228;21.026;2022-09-09T01:52:09;13.80;99.90
21393;DHT22;10857;52.228;21.026;2022-09-09T01:54:38;13.80;99.90
21393;DHT22;10857;52.228;21.026;2022-09-09T01:57:32;13.90;99.90
21393;DHT22;10857;52.228;21.026;2022-09-09T02:00:08;14.00;99.90
21393;DHT22;10857;52.228;21.026;2022-09-09T02:06:02;14.00;99.90
21393;DHT22;10857;52.228;21.026;2022-09-09T02:08:46;14.00;99.90
21393;DHT22;10857;52.228;21.026;2022-09-09T02:11:19;14.00;99.90
21393;DHT22;10857;52.228;21.026;2022-09-09T02:14:15;14.00;99.90
21393;DHT22;10857;52.228;21.026;2022-09-09T02:17:09;14.00;99.90
21393;DHT22;10857;52.228;21.026;2022-09-09T02:20:07;13.90;99.90
21393;DHT22;10857;52.228;21.026;2022-09-09T02:22:46;14.00;99.90
21393;DHT22;10857;52.228;21.026;2022-09-09T02:25:20;14.00;99.90
21393;DHT22;10857;52.228;21.026;2022-09-09T02:27:51;13.90;99.90
21393;DHT22;10857;52.228;21.026;2022-09-09T02:30:19;13.80;99.90
21393;DHT22;10857;52.228;21.026;2022-09-09T02:32:55;13.80;99.90
21393;DHT22;10857;52.228;21.026;2022-09-09T02:35:53;13.80;99.90
21393;DHT22;10857;52.228;21.026;2022-09-09T02:38:33;13.80;99.90
21393;DHT22;10857;52.228;21.026;2022-09-09T02:41:08;13.70;99.90
21393;DHT22;10857;52.228;21.026;2022-09-09T02:43:35;13.80;99.90
21393;DHT22;10857;52.228;21.026;2022-09-09T02:49:02;13.90;99.90
21393;DHT22;10857;52.228;21.026;2022-09-09T02:51:46;13.90;99.90
21393;DHT22;10857;52.228;21.026;2022-09-09T02:54:37;13.90;99.90
21393;DHT22;10857;52.228;21.026;2022-09-09T02:57:22;13.80;99.90
21393;DHT22;10857;52.228;21.026;2022-09-09T02:59:50;13.80;99.90
21393;DHT22;10857;52.228;21.026;2022-09-09T03:02:18;13.80;99.90
21393;DHT22;10857;52.228;21.026;2022-09-09T03:04:53;13.90;99.90
21393;DHT22;10857;52.228;21.026;2022-09-09T03:07:20;13.90;99.90
21393;DHT22;10857;52.228;21.026;2022-09-09T03:09:49;13.90;99.90
21393;DHT22;10857;52.228;21.026;2022-09-09T03:12:17;13.90;99.90
21393;DHT22;10857;52.228;21.026;2022-09-09T03:14:44;13.90;99.90
21393;DHT22;10857;52.228;21.026;2022-09-09T03:17:13;13.90;99.90
21393;DHT22;10857;52.228;21.026;2022-09-09T03:19:47;13.90;99.90
21393;DHT22;10857;52.228;21.026;2022-09-09T03:22:16;13.80;99.90
21393;DHT22;10857;52.228;21.026;2022-09-09T03:24:45;13.80;99.90
21393;DHT22;10857;52.228;21.026;2022-09-09T03:27:13;13.70;99.90
21393;DHT22;10857;52.228;21.026;2022-09-09T03:29:44;13.70;99.90
21393;DHT22;10857;52.228;21.026;2022-09-09T03:32:17;13.60;99.90
21393;DHT22;10857;52.228;21.026;2022-09-09T03:34:45;13.70;99.90
21393;DHT22;10857;52.228;21.026;2022-09-09T03:37:16;13.70;99.90
21393;DHT22;10857;52.228;21.026;2022-09-09T03:39:45;13.70;99.90
21393;DHT22;10857;52.228;21.026;2022-09-09T03:42:14;13.80;99.90
21393;DHT22;10857;52.228;21.026;2022-09-09T03:44:49;13.80;99.90
21393;DHT22;10857;52.228;21.026;2022-09-09T03:47:22;13.90;99.90
21393;DHT22;10857;52.228;21.026;2022-09-09T03:49:55;13.80;99.90
21393;DHT22;10857;52.228;21.026;2022-09-09T03:52:22;13.70;99.90
21393;DHT22;10857;52.228;21.026;2022-09-09T03:54:54;13.70;99.90
21393;DHT22;10857;52.228;21.026;2022-09-09T03:57:21;13.90;99.90
21393;DHT22;10857;52.228;21.026;2022-09-09T03:59:49;13.90;99.90
21393;DHT22;10857;52.228;21.026;2022-09-09T04:02:16;13.90;99.90
21393;DHT22;10857;52.228;21.026;2022-09-09T04:04:43;13.90;99.90
21393;DHT22;10857;52.228;21.026;2022-09-09T04:07:10;13.90;99.90
21393;DHT22;10857;52.228;21.026;2022-09-09T04:09:39;13.90;99.90
21393;DHT22;10857;52.228;21.026;2022-09-09T04:12:06;13.80;99.90
21393;DHT22;10857;52.228;21.026;2022-09-09T04:14:34;13.80;99.90
21393;DHT22;10857;52.228;21.026;2022-09-09T04:17:02;13.80;99.90
21393;DHT22;10857;52.228;21.026;2022-09-09T04:19:33;13.90;99.90
21393;DHT22;10857;52.228;21.026;2022-09-09T04:22:00;13.90;99.90
21393;DHT22;10857;52.228;21.026;2022-09-09T04:24:27;13.90;99.90
21393;DHT22;10857;52.228;21.026;2022-09-09T04:26:58;13.80;99.90
21393;DHT22;10857;52.228;21.026;2022-09-09T04:29:25;13.80;99.90
21393;DHT22;10857;52.228;21.026;2022-09-09T04:31:52;13.80;99.90
21393;DHT22;10857;52.228;21.026;2022-09-09T04:34:20;13.90;99.90
21393;DHT22;10857;52.228;21.026;2022-09-09T04:36:47;13.90;99.90
21393;DHT22;10857;52.228;21.026;2022-09-09T04:39:13;13.90;99.90
21393;DHT22;10857;52.228;21.026;2022-09-09T04:41:41;13.90;99.90
21393;DHT22;10857;52.228;21.026;2022-09-09T04:44:09;13.90;99.90
21393;DHT22;10857;52.228;21.026;2022-09-09T04:46:39;13.80;99.90
21393;DHT22;10857;52.228;21.026;2022-09-09T04:49:10;13.80;99.90
21393;DHT22;10857;52.228;21.026;2022-09-09T04:51:42;13.80;99.90
21393;DHT22;10857;52.228;21.026;2022-09-09T04:54:09;13.80;99.90
21393;DHT22;10857;52.228;21.026;2022-09-09T04:56:42;13.90;99.90
21393;DHT22;10857;52.228;21.026;2022-09-09T04:59:11;13.90;99.90
21393;DHT22;10857;52.228;21.026;2022-09-09T05:01:46;13.80;99.90
21393;DHT22;10857;52.228;21.026;2022-09-09T05:04:13;13.80;99.90
21393;DHT22;10857;52.228;21.026;2022-09-09T05:06:43;13.80;99.90
21393;DHT22;10857;52.228;21.026;2022-09-09T05:09:12;13.80;99.90
21393;DHT22;10857;52.228;21.026;2022-09-09T05:11:38;13.70;99.90
21393;DHT22;10857;52.228;21.026;2022-09-09T05:14:12;13.80;99.90
21393;DHT22;10857;52.228;21.026;2022-09-09T05:16:46;13.90;99.90
21393;DHT22;10857;52.228;21.026;2022-09-09T05:19:15;13.80;99.90
21393;DHT22;10857;52.228;21.026;2022-09-09T05:21:51;13.80;99.90
21393;DHT22;10857;52.228;21.026;2022-09-09T05:24:31;13.90;99.90
21393;DHT22;10857;52.228;21.026;2022-09-09T05:27:01;13.90;99.90
21393;DHT22;10857;52.228;21.026;2022-09-09T05:29:29;13.90;99.90
21393;DHT22;10857;52.228;21.026;2022-09-09T05:31:57;13.80;99.90
21393;DHT22;10857;52.228;21.026;2022-09-09T05:34:25;13.80;99.90
21393;DHT22;10857;52.228;21.026;2022-09-09T05:36:52;13.80;99.90
21393;DHT22;10857;52.228;21.026;2022-09-09T05:39:24;13.80;99.90
21393;DHT22;10857;52.228;21.026;2022-09-09T05:41:51;13.90;99.90
21393;DHT22;10857;52.228;21.026;2022-09-09T05:44:19;13.80;99.90
21393;DHT22;10857;52.228;21.026;2022-09-09T05:46:46;13.90;99.90
21393;DHT22;10857;52.228;21.026;2022-09-09T05:49:15;13.90;99.90
21393;DHT22;10857;52.228;21.026;2022-09-09T05:51:44;13.80;99.90
21393;DHT22;10857;52.228;21.026;2022-09-09T05:54:13;13.80;99.90
21393;DHT22;10857;52.228;21.026;2022-09-09T05:56:47;13.80;99.90
21393;DHT22;10857;52.228;21.026;2022-09-09T05:59:18;13.80;99.90
21393;DHT22;10857;52.228;21.026;2022-09-09T06:01:46;13.80;99.90
21393;DHT22;10857;52.228;21.026;2022-09-09T06:04:20;13.80;99.90
21393;DHT22;10857;52.228;21.026;2022-09-09T06:06:53;13.80;99.90
21393;DHT22;10857;52.228;21.026;2022-09-09T06:09:23;13.70;99.90
21393;DHT22;10857;52.228;21.026;2022-09-09T06:11:51;13.70;99.90
21393;DHT22;10857;52.228;21.026;2022-09-09T06:14:20;13.80;99.90
21393;DHT22;10857;52.228;21.026;2022-09-09T06:16:50;13.80;99.90
21393;DHT22;10857;52.228;21.026;2022-09-09T06:19:20;13.80;99.90
21393;DHT22;10857;52.228;21.026;2022-09-09T06:21:48;13.80;99.90
21393;DHT22;10857;52.228;21.026;2022-09-09T06:24:15;13.90;99.90
21393;DHT22;10857;52.228;21.026;2022-09-09T06:26:44;13.90;99.90
21393;DHT22;10857;52.228;21.026;2022-09-09T06:29:18;13.90;99.90
21393;DHT22;10857;52.228;21.026;2022-09-09T06:31:45;13.90;99.90
21393;DHT22;10857;52.228;21.026;2022-09-09T06:34:15;13.90;99.90
21393;DHT22;10857;52.228;21.026;2022-09-09T06:36:47;13.90;99.90
21393;DHT22;10857;52.228;21.026;2022-09-09T06:39:14;13.90;99.90
21393;DHT22;10857;52.228;21.026;2022-09-09T06:41:42;13.90;99.90
21393;DHT22;10857;52.228;21.026;2022-09-09T06:44:41;14.00;99.90
21393;DHT22;10857;52.228;21.026;2022-09-09T06:47:15;13.90;99.90
21393;DHT22;10857;52.228;21.026;2022-09-09T06:49:42;13.90;99.90
21393;DHT22;10857;52.228;21.026;2022-09-09T06:52:14;13.90;99.90
21393;DHT22;10857;52.228;21.026;2022-09-09T06:54:42;13.90;99.90
21393;DHT22;10857;52.228;21.026;2022-09-09T06:57:09;14.00;99.90
21393;DHT22;10857;52.228;21.026;2022-09-09T06:59:57;14.00;99.90
21393;DHT22;10857;52.228;21.026;2022-09-09T07:02:26;14.10;99.90
21393;DHT22;10857;52.228;21.026;2022-09-09T07:04:53;14.10;99.90
21393;DHT22;10857;52.228;21.026;2022-09-09T07:07:20;14.10;99.90
21393;DHT22;10857;52.228;21.026;2022-09-09T07:09:48;14.10;99.90
21393;DHT22;10857;52.228;21.026;2022-09-09T07:12:15;14.10;99.90
21393;DHT22;10857;52.228;21.026;2022-09-09T07:14:50;14.10;99.90
21393;DHT22;10857;52.228;21.026;2022-09-09T07:17:19;14.00;99.90
21393;DHT22;10857;52.228;21.026;2022-09-09T07:19:46;14.00;99.90
21393;DHT22;10857;52.228;21.026;2022-09-09T07:22:15;14.00;99.90
21393;DHT22;10857;52.228;21.026;2022-09-09T07:24:43;14.10;99.90
21393;DHT22;10857;52.228;21.026;2022-09-09T07:27:13;14.10;99.90
21393;DHT22;10857;52.228;21.026;2022-09-09T07:29:41;14.10;99.90
21393;DHT22;10857;52.228;21.026;2022-09-09T07:32:09;14.00;99.90
21393;DHT22;10857;52.228;21.026;2022-09-09T07:34:37;14.20;99.90
21393;DHT22;10857;52.228;21.026;2022-09-09T07:37:05;14.20;99.90
21393;DHT22;10857;52.228;21.026;2022-09-09T07:39:32;14.20;99.90
21393;DHT22;10857;52.228;21.026;2022-09-09T07:42:00;14.20;99.90
21393;DHT22;10857;52.228;21.026;2022-09-09T07:44:30;14.10;99.90
21393;DHT22;10857;52.228;21.026;2022-09-09T07:47:09;14.20;99.90
21393;DHT22;10857;52.228;21.026;2022-09-09T07:49:42;14.20;99.90
21393;DHT22;10857;52.228;21.026;2022-09-09T07:52:09;14.20;99.90
21393;DHT22;10857;52.228;21.026;2022-09-09T07:54:45;14.20;99.90
21393;DHT22;10857;52.228;21.026;2022-09-09T07:57:15;14.30;99.90
21393;DHT22;10857;52.228;21.026;2022-09-09T07:59:47;14.30;99.90
21393;DHT22;10857;52.228;21.026;2022-09-09T08:02:18;14.20;99.90
21393;DHT22;10857;52.228;21.026;2022-09-09T08:04:45;14.20;99.90
21393;DHT22;10857;52.228;21.026;2022-09-09T08:07:17;14.10;99.90
21393;DHT22;10857;52.228;21.026;2022-09-09T08:09:51;14.10;99.90
21393;DHT22;10857;52.228;21.026;2022-09-09T08:12:23;14.20;99.90
21393;DHT22;10857;52.228;21.026;2022-09-09T08:14:50;14.30;99.90
21393;DHT22;10857;52.228;21.026;2022-09-09T08:17:22;14.30;99.90
21393;DHT22;10857;52.228;21.026;2022-09-09T08:19:51;14.30;99.90
21393;DHT22;10857;52.228;21.026;2022-09-09T08:22:22;14.50;99.90
21393;DHT22;10857;52.228;21.026;2022-09-09T08:24:51;14.40;99.90
21393;DHT22;10857;52.228;21.026;2022-09-09T08:27:22;14.50;99.90
21393;DHT22;10857;52.228;21.026;2022-09-09T08:29:51;14.50;99.90
21393;DHT22;10857;52.228;21.026;2022-09-09T08:32:24;14.50;99.90
21393;DHT22;10857;52.228;21.026;2022-09-09T08:34:51;14.60;99.90
21393;DHT22;10857;52.228;21.026;2022-09-09T08:37:22;14.50;99.90
21393;DHT22;10857;52.228;21.026;2022-09-09T08:39:49;14.50;99.90
21393;DHT22;10857;52.228;21.026;2022-09-09T08:42:30;14.50;99.90
21393;DHT22;10857;52.228;21.026;2022-09-09T08:51:38;14.60;99.90
21393;DHT22;10857;52.228;21.026;2022-09-09T08:54:09;14.50;99.90
21393;DHT22;10857;52.228;21.026;2022-09-09T08:56:38;14.50;99.90
21393;DHT22;10857;52.228;21.026;2022-09-09T08:59:10;14.60;99.90
21393;DHT22;10857;52.228;21.026;2022-09-09T09:07:26;14.70;99.90
21393;DHT22;10857;52.228;21.026;2022-09-09T09:10:16;14.70;99.90
21393;DHT22;10857;52.228;21.026;2022-09-09T09:18:47;14.70;99.90
21393;DHT22;10857;52.228;21.026;2022-09-09T09:24:19;14.60;99.90
21393;DHT22;10857;52.228;21.026;2022-09-09T09:27:11;14.60;99.90
21393;DHT22;10857;52.228;21.026;2022-09-09T09:29:47;14.60;99.90
21393;DHT22;10857;52.228;21.026;2022-09-09T09:32:39;14.60;99.90
21393;DHT22;10857;52.228;21.026;2022-09-09T09:35:13;14.70;99.90
21393;DHT22;10857;52.228;21.026;2022-09-09T09:37:43;14.80;99.90
21393;DHT22;10857;52.228;21.026;2022-09-09T09:40:57;14.80;99.90
21393;DHT22;10857;52.228;21.026;2022-09-09T09:43:34;14.90;99.90
21393;DHT22;10857;52.228;21.026;2022-09-09T09:46:22;15.00;99.90
21393;DHT22;10857;52.228;21.026;2022-09-09T09:48:59;15.00;99.90
21393;DHT22;10857;52.228;21.026;2022-09-09T09:51:31;15.00;99.90
21393;DHT22;10857;52.228;21.026;2022-09-09T09:54:37;15.00;99.90
21393;DHT22;10857;52.228;21.026;2022-09-09T09:57:11;15.00;99.90
21393;DHT22;10857;52.228;21.026;2022-09-09T09:59:44;15.00;99.90
21393;DHT22;10857;52.228;21.026;2022-09-09T10:02:25;15.10;99.90
21393;DHT22;10857;52.228;21.026;2022-09-09T10:05:12;15.00;99.90
21393;DHT22;10857;52.228;21.026;2022-09-09T10:08:01;15.00;99.90
21393;DHT22;10857;52.228;21.026;2022-09-09T10:14:21;15.10;99.90
21393;DHT22;10857;52.228;21.026;2022-09-09T10:19:42;15.10;99.90
21393;DHT22;10857;52.228;21.026;2022-09-09T10:22:25;15.00;99.90
21393;DHT22;10857;52.228;21.026;2022-09-09T10:25:27;15.00;99.90
21393;DHT22;10857;52.228;21.026;2022-09-09T10:28:18;14.90;99.90
21393;DHT22;10857;52.228;21.026;2022-09-09T10:34:18;14.90;99.90
21393;DHT22;10857;52.228;21.026;2022-09-09T10:36:49;14.90;99.90
21393;DHT22;10857;52.228;21.026;2022-09-09T10:39:32;14.90;99.90
21393;DHT22;10857;52.228;21.026;2022-09-09T10:42:15;15.00;99.90
21393;DHT22;10857;52.228;21.026;2022-09-09T10:53:22;15.10;99.90
21393;DHT22;10857;52.228;21.026;2022-09-09T10:55:59;15.10;99.90
21393;DHT22;10857;52.228;21.026;2022-09-09T10:58:29;15.20;99.90
21393;DHT22;10857;52.228;21.026;2022-09-09T11:01:03;15.20;99.90
21393;DHT22;10857;52.228;21.026;2022-09-09T11:03:38;15.30;99.90
21393;DHT22;10857;52.228;21.026;2022-09-09T11:06:19;15.30;99.90
21393;DHT22;10857;52.228;21.026;2022-09-09T11:08:49;15.20;99.90
21393;DHT22;10857;52.228;21.026;2022-09-09T11:11:37;15.20;99.90
21393;DHT22;10857;52.228;21.026;2022-09-09T11:14:26;15.30;99.90
21393;DHT22;10857;52.228;21.026;2022-09-09T11:17:23;15.30;99.90
21393;DHT22;10857;52.228;21.026;2022-09-09T11:19:52;15.30;99.90
21393;DHT22;10857;52.228;21.026;2022-09-09T11:27:29;15.30;99.90
21393;DHT22;10857;52.228;21.026;2022-09-09T11:30:18;15.30;99.90
21393;DHT22;10857;52.228;21.026;2022-09-09T11:38:53;15.30;99.90
21393;DHT22;10857;52.228;21.026;2022-09-09T11:41:33;15.30;99.90
21393;DHT22;10857;52.228;21.026;2022-09-09T11:44:16;15.30;99.90
21393;DHT22;10857;52.228;21.026;2022-09-09T11:46:50;15.40;99.90
21393;DHT22;10857;52.228;21.026;2022-09-09T11:49:30;15.40;99.90
21393;DHT22;10857;52.228;21.026;2022-09-09T11:52:36;15.50;99.90
21393;DHT22;10857;52.228;21.026;2022-09-09T11:55:27;15.50;99.90
21393;DHT22;10857;52.228;21.026;2022-09-09T11:58:22;15.50;99.90
21393;DHT22;10857;52.228;21.026;2022-09-09T12:00:52;15.60;99.90
21393;DHT22;10857;52.228;21.026;2022-09-09T12:03:46;15.60;99.90
21393;DHT22;10857;52.228;21.026;2022-09-09T12:06:32;15.60;99.90
21393;DHT22;10857;52.228;21.026;2022-09-09T12:15:00;15.50;99.90
21393;DHT22;10857;52.228;21.026;2022-09-09T12:17:48;15.40;99.90
21393;DHT22;10857;52.228;21.026;2022-09-09T12:20:33;15.40;99.90
21393;DHT22;10857;52.228;21.026;2022-09-09T12:23:29;15.40;99.90
21393;DHT22;10857;52.228;21.026;2022-09-09T12:26:41;15.40;99.90
21393;DHT22;10857;52.228;21.026;2022-09-09T12:32:15;15.40;99.90
21393;DHT22;10857;52.228;21.026;2022-09-09T12:35:11;15.50;99.90
21393;DHT22;10857;52.228;21.026;2022-09-09T12:37:49;15.50;99.90
21393;DHT22;10857;52.228;21.026;2022-09-09T12:40:28;15.50;99.90
21393;DHT22;10857;52.228;21.026;2022-09-09T12:42:58;15.60;99.90
21393;DHT22;10857;52.228;21.026;2022-09-09T12:45:34;15.50;99.90
21393;DHT22;10857;52.228;21.026;2022-09-09T12:48:09;15.50;99.90
21393;DHT22;10857;52.228;21.026;2022-09-09T12:50:52;15.50;99.90
21393;DHT22;10857;52.228;21.026;2022-09-09T12:53:35;15.50;99.90
21393;DHT22;10857;52.228;21.026;2022-09-09T12:56:19;15.50;99.90
21393;DHT22;10857;52.228;21.026;2022-09-09T12:58:58;15.60;99.90
21393;DHT22;10857;52.228;21.026;2022-09-09T13:01:32;15.60;99.90
21393;DHT22;10857;52.228;21.026;2022-09-09T13:04:20;15.50;99.90
21393;DHT22;10857;52.228;21.026;2022-09-09T13:07:06;15.60;99.90
21393;DHT22;10857;52.228;21.026;2022-09-09T13:09:36;15.50;99.90
21393;DHT22;10857;52.228;21.026;2022-09-09T13:12:16;15.50;99.90
21393;DHT22;10857;52.228;21.026;2022-09-09T13:14:53;15.40;99.90
21393;DHT22;10857;52.228;21.026;2022-09-09T13:17:26;15.30;99.90
21393;DHT22;10857;52.228;21.026;2022-09-09T13:19:57;15.30;99.90
21393;DHT22;10857;52.228;21.026;2022-09-09T13:22:30;15.30;99.90
21393;DHT22;10857;52.228;21.026;2022-09-09T13:27:56;15.30;99.90
21393;DHT22;10857;52.228;21.026;2022-09-09T13:35:51;15.30;99.90
21393;DHT22;10857;52.228;21.026;2022-09-09T13:38:20;15.30;99.90
21393;DHT22;10857;52.228;21.026;2022-09-09T13:41:04;15.30;99.90
21393;DHT22;10857;52.228;21.026;2022-09-09T13:43:43;15.30;99.90
21393;DHT22;10857;52.228;21.026;2022-09-09T13:46:31;15.30;99.90
21393;DHT22;10857;52.228;21.026;2022-09-09T13:52:02;15.30;99.90
21393;DHT22;10857;52.228;21.026;2022-09-09T13:54:38;15.30;99.90
21393;DHT22;10857;52.228;21.026;2022-09-09T13:57:19;15.30;99.90
21393;DHT22;10857;52.228;21.026;2022-09-09T14:00:20;15.30;99.90
21393;DHT22;10857;52.228;21.026;2022-09-09T14:02:50;15.30;99.90
21393;DHT22;10857;52.228;21.026;2022-09-09T14:05:19;15.30;99.90
21393;DHT22;10857;52.228;21.026;2022-09-09T14:07:49;15.30;99.90
21393;DHT22;10857;52.228;21.026;2022-09-09T14:10:22;15.30;99.90
21393;DHT22;10857;52.228;21.026;2022-09-09T14:12:52;15.30;99.90
21393;DHT22;10857;52.228;21.026;2022-09-09T14:15:20;15.30;99.90
21393;DHT22;10857;52.228;21.026;2022-09-09T14:17:50;15.30;99.90
21393;DHT22;10857;52.228;21.026;2022-09-09T14:20:24;15.30;99.90
21393;DHT22;10857;52.228;21.026;2022-09-09T14:22:56;15.30;99.90
21393;DHT22;10857;52.228;21.026;2022-09-09T14:25:35;15.30;99.90
21393;DHT22;10857;52.228;21.026;2022-09-09T14:28:09;15.30;99.90
21393;DHT22;10857;52.228;21.026;2022-09-09T14:30:54;15.30;99.90
21393;DHT22;10857;52.228;21.026;2022-09-09T14:33:33;15.30;99.90
21393;DHT22;10857;52.228;21.026;2022-09-09T14:36:10;15.30;99.90
21393;DHT22;10857;52.228;21.026;2022-09-09T14:38:42;15.30;99.90
21393;DHT22;10857;52.228;21.026;2022-09-09T14:41:28;15.30;99.90
21393;DHT22;10857;52.228;21.026;2022-09-09T14:43:58;15.30;99.90
21393;DHT22;10857;52.228;21.026;2022-09-09T14:46:27;15.30;99.90
21393;DHT22;10857;52.228;21.026;2022-09-09T14:48:54;15.30;99.90
21393;DHT22;10857;52.228;21.026;2022-09-09T14:51:35;15.30;99.90
21393;DHT22;10857;52.228;21.026;2022-09-09T14:54:10;15.30;99.90
21393;DHT22;10857;52.228;21.026;2022-09-09T14:56:40;15.30;99.90
21393;DHT22;10857;52.228;21.026;2022-09-09T14:59:07;15.30;99.90
21393;DHT22;10857;52.228;21.026;2022-09-09T15:01:36;15.40;99.90
21393;DHT22;10857;52.228;21.026;2022-09-09T15:04:13;15.30;99.90
21393;DHT22;10857;52.228;21.026;2022-09-09T15:06:54;15.30;99.90
21393;DHT22;10857;52.228;21.026;2022-09-09T15:09:22;15.40;99.90
21393;DHT22;10857;52.228;21.026;2022-09-09T15:11:51;15.30;99.90
21393;DHT22;10857;52.228;21.026;2022-09-09T15:14:32;15.30;99.90
21393;DHT22;10857;52.228;21.026;2022-09-09T15:17:02;15.40;99.90
21393;DHT22;10857;52.228;21.026;2022-09-09T15:19:30;15.40;99.90
21393;DHT22;10857;52.228;21.026;2022-09-09T15:22:00;15.30;99.90
21393;DHT22;10857;52.228;21.026;2022-09-09T15:24:27;15.30;99.90
21393;DHT22;10857;52.228;21.026;2022-09-09T15:26:55;15.40;99.90
21393;DHT22;10857;52.228;21.026;2022-09-09T15:29:29;15.40;99.90
21393;DHT22;10857;52.228;21.026;2022-09-09T15:31:57;15.40;99.90
21393;DHT22;10857;52.228;21.026;2022-09-09T15:34:29;15.40;99.90
21393;DHT22;10857;52.228;21.026;2022-09-09T15:36:59;15.40;99.90
21393;DHT22;10857;52.228;21.026;2022-09-09T15:39:30;15.40;99.90
21393;DHT22;10857;52.228;21.026;2022-09-09T15:42:04;15.40;99.90
21393;DHT22;10857;52.228;21.026;2022-09-09T15:44:38;15.30;99.90
21393;DHT22;10857;52.228;21.026;2022-09-09T15:47:07;15.30;99.90
21393;DHT22;10857;52.228;21.026;2022-09-09T15:49:34;15.30;99.90
21393;DHT22;10857;52.228;21.026;2022-09-09T15:52:10;15.30;99.90
21393;DHT22;10857;52.228;21.026;2022-09-09T15:54:38;15.30;99.90
21393;DHT22;10857;52.228;21.026;2022-09-09T15:57:11;15.30;99.90
21393;DHT22;10857;52.228;21.026;2022-09-09T15:59:45;15.30;99.90
21393;DHT22;10857;52.228;21.026;2022-09-09T16:02:18;15.30;99.90
21393;DHT22;10857;52.228;21.026;2022-09-09T16:04:59;15.30;99.90
21393;DHT22;10857;52.228;21.026;2022-09-09T16:07:30;15.20;99.90
21393;DHT22;10857;52.228;21.026;2022-09-09T16:09:57;15.30;99.90
21393;DHT22;10857;52.228;21.026;2022-09-09T16:12:26;15.30;99.90
21393;DHT22;10857;52.228;21.026;2022-09-09T16:14:55;15.30;99.90
21393;DHT22;10857;52.228;21.026;2022-09-09T16:17:25;15.30;99.90
21393;DHT22;10857;52.228;21.026;2022-09-09T16:19:52;15.30;99.90
21393;DHT22;10857;52.228;21.026;2022-09-09T16:22:26;15.30;99.90
21393;DHT22;10857;52.228;21.026;2022-09-09T16:24:54;15.30;99.90
21393;DHT22;10857;52.228;21.026;2022-09-09T16:27:36;15.30;99.90
21393;DHT22;10857;52.228;21.026;2022-09-09T16:30:17;15.30;99.90
21393;DHT22;10857;52.228;21.026;2022-09-09T16:32:45;15.30;99.90
21393;DHT22;10857;52.228;21.026;2022-09-09T16:35:20;15.20;99.90
21393;DHT22;10857;52.228;21.026;2022-09-09T16:37:51;15.20;99.90
21393;DHT22;10857;52.228;21.026;2022-09-09T16:40:19;15.10;99.90
21393;DHT22;10857;52.228;21.026;2022-09-09T16:42:48;15.10;99.90
21393;DHT22;10857;52.228;21.026;2022-09-09T16:45:16;15.10;99.90
21393;DHT22;10857;52.228;21.026;2022-09-09T16:47:43;15.10;99.90
21393;DHT22;10857;52.228;21.026;2022-09-09T16:50:15;15.10;99.90
21393;DHT22;10857;52.228;21.026;2022-09-09T16:52:47;15.00;99.90
21393;DHT22;10857;52.228;21.026;2022-09-09T16:55:16;15.00;99.90
21393;DHT22;10857;52.228;21.026;2022-09-09T16:57:50;15.00;99.90
21393;DHT22;10857;52.228;21.026;2022-09-09T17:00:36;15.00;99.90
21393;DHT22;10857;52.228;21.026;2022-09-09T17:03:04;15.00;99.90
21393;DHT22;10857;52.228;21.026;2022-09-09T17:05:32;15.00;99.90
21393;DHT22;10857;52.228;21.026;2022-09-09T17:08:02;15.00;99.90
21393;DHT22;10857;52.228;21.026;2022-09-09T17:10:29;15.00;99.90
21393;DHT22;10857;52.228;21.026;2022-09-09T17:12:56;14.90;99.90
21393;DHT22;10857;52.228;21.026;2022-09-09T17:15:23;14.90;99.90
21393;DHT22;10857;52.228;21.026;2022-09-09T17:17:51;14.90;99.90
21393;DHT22;10857;52.228;21.026;2022-09-09T17:20:20;14.90;99.90
21393;DHT22;10857;52.228;21.026;2022-09-09T17:22:47;14.90;99.90
21393;DHT22;10857;52.228;21.026;2022-09-09T17:25:14;14.80;99.90
21393;DHT22;10857;52.228;21.026;2022-09-09T17:27:43;14.80;99.90
21393;DHT22;10857;52.228;21.026;2022-09-09T17:30:14;14.80;99.90
21393;DHT22;10857;52.228;21.026;2022-09-09T17:32:42;14.80;99.90
21393;DHT22;10857;52.228;21.026;2022-09-09T17:35:13;14.80;99.90
21393;DHT22;10857;52.228;21.026;2022-09-09T17:37:41;14.80;99.90
21393;DHT22;10857;52.228;21.026;2022-09-09T17:40:11;14.80;99.90
21393;DHT22;10857;52.228;21.026;2022-09-09T17:42:48;14.80;99.90